createdAt,value
2022-10-18T00:01:28.423Z,4.90
2022-10-18T00:03:56.240Z,4.80
2022-10-18T00:06:23.928Z,4.70
2022-10-18T00:08:51.522Z,4.80
2022-10-18T00:11:19.115Z,4.90
2022-10-18T00:13:46.812Z,4.90
2022-10-18T00:16:16.341Z,4.90
2022-10-18T00:18:44.561Z,4.90
2022-10-18T00:21:15.594Z,4.90
2022-10-18T00:23:43.932Z,4.90
2022-10-18T00:26:25.289Z,4.90
2022-10-18T00:29:05.190Z,4.80
2022-10-18T00:31:38.475Z,4.80
2022-10-18T00:34:11.991Z,4.80
2022-10-18T00:36:40.095Z,4.70
2022-10-18T00:39:09.667Z,4.70
2022-10-18T00:41:38.070Z,4.80
2022-10-18T00:44:11.805Z,4.60
2022-10-18T00:46:45.637Z,4.50
2022-10-18T00:49:27.556Z,4.70
2022-10-18T00:52:18.154Z,4.60
2022-10-18T00:54:47.236Z,4.50
2022-10-18T00:57:15.003Z,4.60
2022-10-18T00:59:43.903Z,4.50
2022-10-18T01:02:11.828Z,4.70
2022-10-18T01:04:39.512Z,4.70
2022-10-18T01:07:25.026Z,4.70
2022-10-18T01:10:17.399Z,4.80
2022-10-18T01:13:25.591Z,4.80
2022-10-18T01:16:18.352Z,4.80
2022-10-18T01:19:26.860Z,4.90
2022-10-18T01:22:26.526Z,4.90
2022-10-18T01:25:09.166Z,4.80
2022-10-18T01:27:48.792Z,4.70
2022-10-18T01:30:34.466Z,4.50
2022-10-18T01:33:32.876Z,4.50
2022-10-18T01:36:04.066Z,4.50
2022-10-18T01:38:34.570Z,4.60
2022-10-18T01:41:04.435Z,4.60
2022-10-18T01:43:33.720Z,4.60
2022-10-18T01:46:02.096Z,4.50
2022-10-18T01:48:30.553Z,4.50
2022-10-18T01:53:32.068Z,4.60
2022-10-18T01:56:21.405Z,4.70
2022-10-18T01:59:23.891Z,4.70
2022-10-18T02:02:02.521Z,4.70
2022-10-18T02:04:53.721Z,4.80
2022-10-18T02:07:34.429Z,4.70
2022-10-18T02:10:24.539Z,4.80
2022-10-18T02:12:54.103Z,4.60
2022-10-18T02:15:31.140Z,4.50
2022-10-18T02:18:00.601Z,4.50
2022-10-18T02:20:29.489Z,4.50
2022-10-18T02:22:59.735Z,4.40
2022-10-18T02:25:31.856Z,4.40
2022-10-18T02:27:59.722Z,4.30
2022-10-18T02:30:49.053Z,4.30
2022-10-18T02:33:32.712Z,4.20
2022-10-18T02:36:07.611Z,4.20
2022-10-18T02:38:35.437Z,4.00
2022-10-18T02:41:03.045Z,4.10
2022-10-18T02:43:31.109Z,4.00
2022-10-18T02:45:58.846Z,4.00
2022-10-18T02:48:26.455Z,4.00
2022-10-18T02:50:53.980Z,4.00
2022-10-18T02:53:21.637Z,3.90
2022-10-18T02:55:49.172Z,3.90
2022-10-18T02:58:16.771Z,3.90
2022-10-18T03:00:44.434Z,3.80
2022-10-18T03:03:11.982Z,4.30
2022-10-18T03:05:39.571Z,3.70
2022-10-18T03:08:07.144Z,3.60
2022-10-18T03:10:34.712Z,3.60
2022-10-18T03:13:02.426Z,3.60
2022-10-18T03:17:57.954Z,3.60
2022-10-18T03:20:25.654Z,3.60
2022-10-18T03:22:53.228Z,3.60
2022-10-18T03:25:21.016Z,3.70
2022-10-18T03:30:16.630Z,3.60
2022-10-18T03:32:44.237Z,3.70
2022-10-18T03:35:11.898Z,3.80
2022-10-18T03:37:39.533Z,3.80
2022-10-18T03:40:07.964Z,3.80
2022-10-18T03:42:35.587Z,3.80
2022-10-18T03:45:03.727Z,3.70
2022-10-18T03:47:31.538Z,3.60
2022-10-18T03:49:59.025Z,3.60
2022-10-18T03:52:26.598Z,3.60
2022-10-18T03:54:54.240Z,3.70
2022-10-18T03:57:21.787Z,3.70
2022-10-18T03:59:49.449Z,3.70
2022-10-18T04:02:17.079Z,3.60
2022-10-18T04:04:44.647Z,3.50
2022-10-18T04:07:12.318Z,3.40
2022-10-18T04:09:39.869Z,1.00
2022-10-18T04:12:07.507Z,3.40
2022-10-18T04:14:35.044Z,3.40
2022-10-18T04:17:04.813Z,3.30
2022-10-18T04:19:32.364Z,3.30
2022-10-18T04:21:59.923Z,3.20
2022-10-18T04:24:27.516Z,3.30
2022-10-18T04:26:55.062Z,3.20
2022-10-18T04:29:22.750Z,3.10
2022-10-18T04:31:50.436Z,3.00
2022-10-18T04:34:17.991Z,3.00
2022-10-18T04:36:45.443Z,3.00
2022-10-18T04:39:12.968Z,3.10
2022-10-18T04:41:40.718Z,3.10
2022-10-18T04:44:08.323Z,3.10
2022-10-18T04:46:36.052Z,3.10
2022-10-18T04:49:03.895Z,3.00
2022-10-18T04:51:31.481Z,3.00
2022-10-18T04:53:59.043Z,3.00
2022-10-18T04:56:26.679Z,3.00
2022-10-18T04:58:54.244Z,2.90
2022-10-18T05:01:21.986Z,2.80
2022-10-18T05:03:54.155Z,2.80
2022-10-18T05:06:22.413Z,2.90
2022-10-18T05:08:50.162Z,4.50
2022-10-18T05:11:17.747Z,2.90
2022-10-18T05:13:47.265Z,2.90
2022-10-18T05:18:45.675Z,2.90
2022-10-18T05:21:13.271Z,2.90
2022-10-18T05:23:41.036Z,3.00
2022-10-18T05:26:09.691Z,2.90
2022-10-18T05:28:40.552Z,3.00
2022-10-18T05:31:10.747Z,2.90
2022-10-18T05:33:38.475Z,2.80
2022-10-18T05:36:06.583Z,2.80
2022-10-18T05:38:34.087Z,2.80
2022-10-18T05:41:05.590Z,3.00
2022-10-18T05:43:33.277Z,3.00
2022-10-18T05:46:00.838Z,3.00
2022-10-18T05:48:28.390Z,3.00
2022-10-18T05:50:59.434Z,3.00
2022-10-18T05:53:42.950Z,3.30
2022-10-18T05:56:11.988Z,3.30
2022-10-18T05:58:40.710Z,3.30
2022-10-18T06:01:09.951Z,3.30
2022-10-18T06:03:37.591Z,3.40
2022-10-18T06:06:08.710Z,3.50
2022-10-18T06:08:37.289Z,3.50
2022-10-18T06:11:23.657Z,3.60
2022-10-18T06:13:52.749Z,3.70
2022-10-18T06:16:22.365Z,3.90
2022-10-18T06:18:57.622Z,3.90
2022-10-18T06:21:25.776Z,4.00
2022-10-18T06:23:54.844Z,4.30
2022-10-18T06:28:51.473Z,4.20
2022-10-18T06:31:20.593Z,4.30
2022-10-18T06:33:48.285Z,4.40
2022-10-18T06:36:22.302Z,4.50
2022-10-18T06:38:50.768Z,4.50
2022-10-18T06:41:19.620Z,4.60
2022-10-18T06:43:51.957Z,4.60
2022-10-18T06:48:47.580Z,4.80
2022-10-18T06:51:18.629Z,4.80
2022-10-18T06:56:34.557Z,4.90
2022-10-18T06:59:02.588Z,5.00
2022-10-18T07:01:30.343Z,5.00
2022-10-18T07:03:58.143Z,5.00
2022-10-18T07:06:25.918Z,5.10
2022-10-18T07:11:25.193Z,5.20
2022-10-18T07:13:54.579Z,5.20
2022-10-18T07:16:22.207Z,5.30
2022-10-18T07:18:51.526Z,5.30
2022-10-18T07:21:23.403Z,5.30
2022-10-18T07:23:51.988Z,5.40
2022-10-18T07:26:25.656Z,5.30
2022-10-18T07:28:58.162Z,5.40
2022-10-18T07:31:26.181Z,5.40
2022-10-18T07:33:54.478Z,5.40
2022-10-18T07:36:22.362Z,5.40
2022-10-18T07:38:52.000Z,5.50
2022-10-18T07:43:50.861Z,5.40
2022-10-18T07:46:20.350Z,5.50
2022-10-18T07:48:48.566Z,5.50
2022-10-18T07:51:16.271Z,5.50
2022-10-18T07:53:44.256Z,5.60
2022-10-18T07:56:17.107Z,5.60
2022-10-18T07:58:46.221Z,5.80
2022-10-18T08:01:15.722Z,5.60
2022-10-18T08:06:14.544Z,5.60
2022-10-18T08:08:42.751Z,5.70
2022-10-18T08:11:15.240Z,5.70
2022-10-18T08:13:43.358Z,5.70
2022-10-18T08:16:12.666Z,6.60
2022-10-18T08:18:41.446Z,5.80
2022-10-18T08:21:10.630Z,5.80
2022-10-18T08:23:38.724Z,5.90
2022-10-18T08:26:12.534Z,5.90
2022-10-18T08:31:18.577Z,6.10
2022-10-18T08:33:47.297Z,6.20
2022-10-18T08:36:16.618Z,6.30
2022-10-18T08:38:44.696Z,6.40
2022-10-18T08:41:15.215Z,6.40
2022-10-18T08:43:55.853Z,6.60
2022-10-18T08:46:23.518Z,6.70
2022-10-18T08:48:55.193Z,6.80
2022-10-18T08:51:31.848Z,6.90
2022-10-18T08:54:43.630Z,7.00
2022-10-18T08:57:18.159Z,7.10
2022-10-18T08:59:45.910Z,7.30
2022-10-18T09:02:40.928Z,7.40
2022-10-18T09:05:30.136Z,7.50
2022-10-18T09:08:11.732Z,7.60
2022-10-18T09:11:03.810Z,7.70
2022-10-18T09:13:53.006Z,7.80
2022-10-18T09:16:56.648Z,7.90
2022-10-18T09:19:44.415Z,8.10
2022-10-18T09:22:14.965Z,8.10
2022-10-18T09:25:00.510Z,8.30
2022-10-18T09:27:52.730Z,8.40
2022-10-18T09:30:44.994Z,8.60
2022-10-18T09:33:28.857Z,8.60
2022-10-18T09:36:03.311Z,8.90
2022-10-18T09:38:58.530Z,9.10
2022-10-18T09:41:47.585Z,9.00
2022-10-18T09:44:51.044Z,9.20
2022-10-18T09:47:26.781Z,9.50
2022-10-18T09:50:25.717Z,9.60
2022-10-18T09:53:11.821Z,9.60
2022-10-18T09:55:56.357Z,9.90
2022-10-18T09:58:26.946Z,9.90
2022-10-18T10:00:55.894Z,10.10
2022-10-18T10:03:23.413Z,10.30
2022-10-18T10:06:22.396Z,10.20
2022-10-18T10:08:57.339Z,10.50
2022-10-18T10:11:31.423Z,10.50
2022-10-18T10:16:55.811Z,10.90
2022-10-18T10:19:34.177Z,11.00
2022-10-18T10:22:11.949Z,11.20
2022-10-18T10:24:49.312Z,11.30
2022-10-18T10:27:44.899Z,11.50
2022-10-18T10:30:28.888Z,11.50
2022-10-18T10:32:57.835Z,11.80
2022-10-18T10:35:52.673Z,11.70
2022-10-18T10:38:26.681Z,9.50
2022-10-18T10:40:58.585Z,13.50
2022-10-18T10:43:39.225Z,12.10
2022-10-18T10:46:12.065Z,12.30
2022-10-18T10:48:47.527Z,12.40
2022-10-18T10:51:37.927Z,12.40
2022-10-18T10:54:12.116Z,12.70
2022-10-18T10:56:58.358Z,12.80
2022-10-18T10:59:30.546Z,12.80
2022-10-18T11:02:20.227Z,13.00
2022-10-18T11:04:52.852Z,13.10
2022-10-18T11:07:39.598Z,13.10
2022-10-18T11:10:10.572Z,13.30
2022-10-18T11:12:39.744Z,13.40
2022-10-18T11:15:12.071Z,13.40
2022-10-18T11:17:42.823Z,13.50
2022-10-18T11:20:28.653Z,13.60
2022-10-18T11:22:56.499Z,13.60
2022-10-18T11:25:31.724Z,13.80
2022-10-18T11:28:29.122Z,13.80
2022-10-18T11:31:10.286Z,14.00
2022-10-18T11:34:08.264Z,14.10
2022-10-18T11:36:57.813Z,14.20
2022-10-18T11:39:49.694Z,14.20
2022-10-18T11:42:32.909Z,14.30
2022-10-18T11:45:51.508Z,14.30
2022-10-18T11:48:37.793Z,13.70
2022-10-18T11:51:09.423Z,14.50
2022-10-18T11:54:05.450Z,14.70
2022-10-18T11:56:53.747Z,14.80
2022-10-18T11:59:30.408Z,14.80
2022-10-18T12:02:19.551Z,15.10
2022-10-18T12:05:22.056Z,15.10
2022-10-18T12:08:17.689Z,15.30
2022-10-18T12:11:04.540Z,15.30
2022-10-18T12:13:50.076Z,15.30
2022-10-18T12:16:38.928Z,15.20
2022-10-18T12:19:26.752Z,15.10
2022-10-18T12:22:08.577Z,15.10
2022-10-18T12:24:37.539Z,15.10
2022-10-18T12:27:05.448Z,15.20
2022-10-18T12:29:50.249Z,15.20
2022-10-18T12:32:32.468Z,15.20
2022-10-18T12:35:07.017Z,15.30
2022-10-18T12:37:40.519Z,15.30
2022-10-18T12:40:21.555Z,15.40
2022-10-18T12:42:53.439Z,15.40
2022-10-18T12:45:28.643Z,15.40
2022-10-18T12:48:05.493Z,15.30
2022-10-18T12:50:42.681Z,15.40
2022-10-18T12:53:30.010Z,15.40
2022-10-18T12:56:43.817Z,15.50
2022-10-18T12:59:14.984Z,15.60
2022-10-18T13:01:52.078Z,15.60
2022-10-18T13:04:28.819Z,15.60
2022-10-18T13:07:05.448Z,15.70
2022-10-18T13:09:39.292Z,15.70
2022-10-18T13:12:10.065Z,15.80
2022-10-18T13:15:13.396Z,15.80
2022-10-18T13:17:56.467Z,15.80
2022-10-18T13:20:36.903Z,15.80
2022-10-18T13:23:44.366Z,15.80
2022-10-18T13:26:31.942Z,15.90
2022-10-18T13:29:05.267Z,15.90
2022-10-18T13:31:48.718Z,15.90
2022-10-18T13:34:25.453Z,16.00
2022-10-18T13:37:07.053Z,16.00
2022-10-18T13:39:35.030Z,16.00
2022-10-18T13:42:02.451Z,16.00
2022-10-18T13:44:37.738Z,16.10
2022-10-18T13:47:05.368Z,16.10
2022-10-18T13:49:39.215Z,16.10
2022-10-18T13:52:28.598Z,16.10
2022-10-18T13:55:33.838Z,16.10
2022-10-18T13:58:16.623Z,16.20
2022-10-18T14:01:02.879Z,16.20
2022-10-18T14:03:57.630Z,16.20
2022-10-18T14:06:34.099Z,16.20
2022-10-18T14:09:19.276Z,16.20
2022-10-18T14:12:07.805Z,16.30
2022-10-18T14:14:46.493Z,16.30
2022-10-18T14:17:32.124Z,16.30
2022-10-18T14:20:27.366Z,16.30
2022-10-18T14:23:09.526Z,16.30
2022-10-18T14:25:38.790Z,16.30
2022-10-18T14:28:15.222Z,16.30
2022-10-18T14:31:03.248Z,16.40
2022-10-18T14:33:35.500Z,16.40
2022-10-18T14:36:11.647Z,16.40
2022-10-18T14:38:54.520Z,16.40
2022-10-18T14:41:30.702Z,16.50
2022-10-18T14:44:16.698Z,16.40
2022-10-18T14:46:49.848Z,16.50
2022-10-18T14:49:19.273Z,16.50
2022-10-18T14:51:50.737Z,16.50
2022-10-18T14:54:40.595Z,16.40
2022-10-18T14:57:18.194Z,16.20
2022-10-18T14:59:52.454Z,16.20
2022-10-18T15:02:24.124Z,16.10
2022-10-18T15:05:04.939Z,16.10
2022-10-18T15:07:33.548Z,16.10
2022-10-18T15:10:04.106Z,16.10
2022-10-18T15:12:36.876Z,16.20
2022-10-18T15:15:17.269Z,16.50
2022-10-18T15:17:46.676Z,16.80
2022-10-18T15:20:28.470Z,17.10
2022-10-18T15:23:22.228Z,17.30
2022-10-18T15:25:51.139Z,17.40
2022-10-18T15:28:51.506Z,17.60
2022-10-18T15:31:44.564Z,18.10
2022-10-18T15:34:28.175Z,18.20
2022-10-18T15:36:57.143Z,18.20
2022-10-18T15:39:31.517Z,17.90
2022-10-18T15:42:02.442Z,17.80
2022-10-18T15:44:34.823Z,17.60
2022-10-18T15:47:21.837Z,17.40
2022-10-18T15:49:55.742Z,17.10
2022-10-18T15:52:42.541Z,16.50
2022-10-18T15:55:51.411Z,16.40
2022-10-18T15:58:45.837Z,15.90
2022-10-18T16:01:22.728Z,15.90
2022-10-18T16:03:51.942Z,15.60
2022-10-18T16:06:20.330Z,15.40
2022-10-18T16:08:50.559Z,15.20
2022-10-18T16:11:24.522Z,15.20
2022-10-18T16:13:56.423Z,15.00
2022-10-18T16:16:28.895Z,14.90
2022-10-18T16:18:56.857Z,14.80
2022-10-18T16:21:29.410Z,14.80
2022-10-18T16:23:57.732Z,14.50
2022-10-18T16:26:26.348Z,14.40
2022-10-18T16:28:55.128Z,14.20
2022-10-18T16:31:26.216Z,14.20
2022-10-18T16:33:55.503Z,14.10
2022-10-18T16:36:31.367Z,14.00
2022-10-18T16:39:02.651Z,13.80
2022-10-18T16:43:58.169Z,13.70
2022-10-18T16:46:28.479Z,13.50
2022-10-18T16:48:57.365Z,13.40
2022-10-18T16:51:25.438Z,13.30
2022-10-18T16:53:54.080Z,13.20
2022-10-18T16:56:27.403Z,13.20
2022-10-18T16:58:55.063Z,13.00
2022-10-18T17:01:24.710Z,12.90
2022-10-18T17:03:53.439Z,12.80
2022-10-18T17:06:41.309Z,12.70
2022-10-18T17:09:09.593Z,12.60
2022-10-18T17:11:37.110Z,12.50
2022-10-18T17:14:04.694Z,12.40
2022-10-18T17:16:34.969Z,12.40
2022-10-18T17:19:05.761Z,12.40
2022-10-18T17:21:33.618Z,12.30
2022-10-18T17:24:06.029Z,12.30
2022-10-18T17:26:34.230Z,12.30
2022-10-18T17:29:04.879Z,12.20
2022-10-18T17:31:33.314Z,12.10
2022-10-18T17:34:02.072Z,7.70
2022-10-18T17:36:33.419Z,12.00
2022-10-18T17:39:01.333Z,12.00
2022-10-18T17:41:28.943Z,12.00
2022-10-18T17:43:56.517Z,11.90
2022-10-18T17:46:24.653Z,11.80
2022-10-18T17:48:53.373Z,11.80
2022-10-18T17:51:21.498Z,11.70
2022-10-18T17:56:20.408Z,11.60
2022-10-18T17:58:51.561Z,11.60
2022-10-18T18:01:23.559Z,11.60
2022-10-18T18:04:02.494Z,11.60
2022-10-18T18:06:34.079Z,11.50
2022-10-18T18:09:10.460Z,11.50
2022-10-18T18:11:39.576Z,11.50
2022-10-18T18:14:09.130Z,11.50
2022-10-18T18:16:38.767Z,11.40
2022-10-18T18:19:09.801Z,11.30
2022-10-18T18:21:38.996Z,11.30
2022-10-18T18:24:07.346Z,11.20
2022-10-18T18:26:36.049Z,11.20
2022-10-18T18:29:04.563Z,11.20
2022-10-18T18:31:38.619Z,11.20
2022-10-18T18:34:09.666Z,11.00
2022-10-18T18:39:09.200Z,10.90
2022-10-18T18:41:38.438Z,10.80
2022-10-18T18:44:06.578Z,10.80
2022-10-18T18:46:41.442Z,10.80
2022-10-18T18:49:10.113Z,10.80
2022-10-18T18:51:39.710Z,10.70
2022-10-18T18:54:08.991Z,10.70
2022-10-18T18:56:37.298Z,10.70
2022-10-18T18:59:05.132Z,10.70
2022-10-18T19:01:35.427Z,10.60
2022-10-18T19:04:05.263Z,10.60
2022-10-18T19:06:39.234Z,10.60
2022-10-18T19:09:12.271Z,10.60
2022-10-18T19:11:40.469Z,10.50
2022-10-18T19:14:09.070Z,10.40
2022-10-18T19:16:38.774Z,10.40
2022-10-18T19:19:15.586Z,10.40
2022-10-18T19:21:54.008Z,10.50
2022-10-18T19:24:23.795Z,10.60
2022-10-18T19:26:54.479Z,10.60
2022-10-18T19:29:41.187Z,10.70
2022-10-18T19:32:12.303Z,10.70
2022-10-18T19:34:40.133Z,10.70
2022-10-18T19:37:09.529Z,10.70
2022-10-18T19:39:37.633Z,10.70
2022-10-18T19:42:06.525Z,10.70
2022-10-18T19:44:36.117Z,10.70
2022-10-18T19:47:05.889Z,10.70
2022-10-18T19:49:33.408Z,10.60
2022-10-18T19:54:29.120Z,10.60
2022-10-18T19:59:24.762Z,10.50
2022-10-18T20:01:52.787Z,10.50
2022-10-18T20:04:20.684Z,10.50
2022-10-18T20:06:48.334Z,10.50
2022-10-18T20:09:19.471Z,10.40
2022-10-18T20:11:48.431Z,10.40
2022-10-18T20:14:15.980Z,10.40
2022-10-18T20:16:44.644Z,10.40
2022-10-18T20:19:12.214Z,10.40
2022-10-18T20:24:09.289Z,10.30
2022-10-18T20:26:37.191Z,10.20
2022-10-18T20:29:04.967Z,9.30
2022-10-18T20:31:37.131Z,10.20
2022-10-18T20:34:08.552Z,10.20
2022-10-18T20:36:37.512Z,10.20
2022-10-18T20:39:06.711Z,10.10
2022-10-18T20:41:36.831Z,10.10
2022-10-18T20:44:07.973Z,10.10
2022-10-18T20:46:37.927Z,10.10
2022-10-18T20:49:07.369Z,10.00
2022-10-18T20:51:35.648Z,10.00
2022-10-18T20:56:39.560Z,10.00
2022-10-18T20:59:10.005Z,10.00
2022-10-18T21:01:39.689Z,10.00
2022-10-18T21:04:09.671Z,9.90
2022-10-18T21:06:44.662Z,9.80
2022-10-18T21:09:18.582Z,9.90
2022-10-18T21:11:49.832Z,9.80
2022-10-18T21:14:19.893Z,9.80
2022-10-18T21:16:48.330Z,9.80
2022-10-18T21:19:22.339Z,9.80
2022-10-18T21:21:54.399Z,9.80
2022-10-18T21:24:24.125Z,9.80
2022-10-18T21:26:52.053Z,9.80
2022-10-18T21:31:54.170Z,9.80
2022-10-18T21:34:22.258Z,9.70
2022-10-18T21:36:49.851Z,9.80
2022-10-18T21:39:20.307Z,9.70
2022-10-18T21:41:48.261Z,9.70
2022-10-18T21:44:18.073Z,9.70
2022-10-18T21:46:46.785Z,9.70
2022-10-18T21:51:42.842Z,9.70
2022-10-18T21:54:15.316Z,9.70
2022-10-18T21:56:43.524Z,9.70
2022-10-18T21:59:14.374Z,9.70
2022-10-18T22:01:44.240Z,9.80
2022-10-18T22:04:24.070Z,9.80
2022-10-18T22:06:52.158Z,9.80
2022-10-18T22:09:21.701Z,9.80
2022-10-18T22:11:52.500Z,9.80
2022-10-18T22:14:20.506Z,9.80
2022-10-18T22:16:48.059Z,9.80
2022-10-18T22:19:15.665Z,9.80
2022-10-18T22:21:43.254Z,9.80
2022-10-18T22:24:10.883Z,9.80
2022-10-18T22:26:40.777Z,9.80
2022-10-18T22:29:14.836Z,9.70
2022-10-18T22:31:48.721Z,9.70
2022-10-18T22:34:19.884Z,13.20
2022-10-18T22:39:16.818Z,9.70
2022-10-18T22:41:44.803Z,9.70
2022-10-18T22:44:14.552Z,9.70
2022-10-18T22:46:42.498Z,9.70
2022-10-18T22:49:11.335Z,9.60
2022-10-18T22:51:39.211Z,9.70
2022-10-18T22:54:07.244Z,9.60
2022-10-18T22:56:35.100Z,9.70
2022-10-18T22:59:02.770Z,9.70
2022-10-18T23:01:30.387Z,9.70
2022-10-18T23:03:59.762Z,9.70
2022-10-18T23:06:30.142Z,9.80
2022-10-18T23:08:59.546Z,9.70
2022-10-18T23:11:28.607Z,9.80
2022-10-18T23:13:56.330Z,9.80
2022-10-18T23:18:54.571Z,9.90
2022-10-18T23:21:24.405Z,9.90
2022-10-18T23:23:53.266Z,9.90
2022-10-18T23:26:25.174Z,9.90
2022-10-18T23:28:54.058Z,10.00
2022-10-18T23:31:27.414Z,14.20
2022-10-18T23:33:58.239Z,10.10
2022-10-18T23:36:26.555Z,10.20
2022-10-18T23:38:54.298Z,10.20
2022-10-18T23:41:21.767Z,10.20
2022-10-18T23:43:49.479Z,10.20
2022-10-18T23:46:18.017Z,10.30
2022-10-18T23:48:46.652Z,10.30
2022-10-18T23:51:14.696Z,10.30
2022-10-18T23:53:42.418Z,10.30
2022-10-18T23:56:13.029Z,10.40
2022-10-18T23:58:41.067Z,10.40
